sensor_id;sensor_type;location;lat;lon;timestamp;P1;durP1;ratioP1;P2;durP2;ratioP2
9174;SDS011;54374;50.196;8.050;2022-07-23T00:00:18;7.33;;;5.67;;
9174;SDS011;54374;50.196;8.050;2022-07-23T00:02:47;8.63;;;5.43;;
9174;SDS011;54374;50.196;8.050;2022-07-23T00:05:15;8.30;;;5.83;;
9174;SDS011;54374;50.196;8.050;2022-07-23T00:07:42;7.37;;;5.30;;
9174;SDS011;54374;50.196;8.050;2022-07-23T00:10:09;8.20;;;5.47;;
9174;SDS011;54374;50.196;8.050;2022-07-23T00:12:36;9.60;;;5.47;;
9174;SDS011;54374;50.196;8.050;2022-07-23T00:15:04;9.07;;;5.43;;
9174;SDS011;54374;50.196;8.050;2022-07-23T00:17:32;6.47;;;5.03;;
9174;SDS011;54374;50.196;8.050;2022-07-23T00:20:01;10.43;;;5.50;;
9174;SDS011;54374;50.196;8.050;2022-07-23T00:22:28;7.17;;;5.30;;
9174;SDS011;54374;50.196;8.050;2022-07-23T00:24:55;5.90;;;4.70;;
9174;SDS011;54374;50.196;8.050;2022-07-23T00:27:23;9.60;;;5.37;;
9174;SDS011;54374;50.196;8.050;2022-07-23T00:29:50;9.90;;;5.30;;
9174;SDS011;54374;50.196;8.050;2022-07-23T00:32:17;8.77;;;5.50;;
9174;SDS011;54374;50.196;8.050;2022-07-23T00:34:44;9.83;;;6.00;;
9174;SDS011;54374;50.196;8.050;2022-07-23T00:37:13;10.00;;;5.70;;
9174;SDS011;54374;50.196;8.050;2022-07-23T00:39:40;8.70;;;5.53;;
9174;SDS011;54374;50.196;8.050;2022-07-23T00:42:07;9.17;;;6.00;;
9174;SDS011;54374;50.196;8.050;2022-07-23T00:44:34;11.77;;;6.20;;
9174;SDS011;54374;50.196;8.050;2022-07-23T00:47:01;6.37;;;4.87;;
9174;SDS011;54374;50.196;8.050;2022-07-23T00:49:30;10.10;;;5.47;;
9174;SDS011;54374;50.196;8.050;2022-07-23T00:51:58;13.03;;;6.63;;
9174;SDS011;54374;50.196;8.050;2022-07-23T00:54:29;12.03;;;6.20;;
9174;SDS011;54374;50.196;8.050;2022-07-23T00:56:56;11.80;;;5.97;;
9174;SDS011;54374;50.196;8.050;2022-07-23T00:59:23;12.27;;;6.57;;
9174;SDS011;54374;50.196;8.050;2022-07-23T01:01:50;10.93;;;6.37;;
9174;SDS011;54374;50.196;8.050;2022-07-23T01:04:17;9.13;;;5.87;;
9174;SDS011;54374;50.196;8.050;2022-07-23T01:06:45;11.73;;;6.40;;
9174;SDS011;54374;50.196;8.050;2022-07-23T01:09:12;11.93;;;7.03;;
9174;SDS011;54374;50.196;8.050;2022-07-23T01:11:41;9.20;;;5.73;;
9174;SDS011;54374;50.196;8.050;2022-07-23T01:14:10;11.83;;;6.13;;
9174;SDS011;54374;50.196;8.050;2022-07-23T01:16:38;9.03;;;5.93;;
9174;SDS011;54374;50.196;8.050;2022-07-23T01:19:06;11.17;;;5.63;;
9174;SDS011;54374;50.196;8.050;2022-07-23T01:21:37;8.90;;;5.63;;
9174;SDS011;54374;50.196;8.050;2022-07-23T01:24:08;7.93;;;5.43;;
9174;SDS011;54374;50.196;8.050;2022-07-23T01:26:41;9.50;;;6.37;;
9174;SDS011;54374;50.196;8.050;2022-07-23T01:29:10;9.20;;;5.70;;
9174;SDS011;54374;50.196;8.050;2022-07-23T01:31:38;8.83;;;6.70;;
9174;SDS011;54374;50.196;8.050;2022-07-23T01:34:06;11.13;;;6.50;;
9174;SDS011;54374;50.196;8.050;2022-07-23T01:36:33;9.87;;;6.57;;
9174;SDS011;54374;50.196;8.050;2022-07-23T01:39:04;10.50;;;5.43;;
9174;SDS011;54374;50.196;8.050;2022-07-23T01:41:34;10.93;;;5.43;;
9174;SDS011;54374;50.196;8.050;2022-07-23T01:44:02;6.90;;;5.37;;
9174;SDS011;54374;50.196;8.050;2022-07-23T01:46:29;10.67;;;6.57;;
9174;SDS011;54374;50.196;8.050;2022-07-23T01:48:57;9.50;;;6.47;;
9174;SDS011;54374;50.196;8.050;2022-07-23T01:51:53;11.67;;;6.97;;
9174;SDS011;54374;50.196;8.050;2022-07-23T01:54:33;9.93;;;6.87;;
9174;SDS011;54374;50.196;8.050;2022-07-23T01:57:04;9.70;;;5.73;;
9174;SDS011;54374;50.196;8.050;2022-07-23T01:59:32;10.70;;;6.60;;
9174;SDS011;54374;50.196;8.050;2022-07-23T02:01:59;9.63;;;5.57;;
9174;SDS011;54374;50.196;8.050;2022-07-23T02:04:31;10.50;;;6.30;;
9174;SDS011;54374;50.196;8.050;2022-07-23T02:07:02;9.40;;;6.07;;
9174;SDS011;54374;50.196;8.050;2022-07-23T02:09:30;11.33;;;6.53;;
9174;SDS011;54374;50.196;8.050;2022-07-23T02:11:57;9.87;;;6.27;;
9174;SDS011;54374;50.196;8.050;2022-07-23T02:14:26;7.37;;;5.63;;
9174;SDS011;54374;50.196;8.050;2022-07-23T02:16:53;6.90;;;5.13;;
9174;SDS011;54374;50.196;8.050;2022-07-23T02:19:20;8.90;;;5.60;;
9174;SDS011;54374;50.196;8.050;2022-07-23T02:21:47;10.37;;;6.40;;
9174;SDS011;54374;50.196;8.050;2022-07-23T02:24:14;13.10;;;5.40;;
9174;SDS011;54374;50.196;8.050;2022-07-23T02:26:42;7.77;;;5.93;;
9174;SDS011;54374;50.196;8.050;2022-07-23T02:29:10;16.53;;;7.03;;
9174;SDS011;54374;50.196;8.050;2022-07-23T02:31:39;12.20;;;6.93;;
9174;SDS011;54374;50.196;8.050;2022-07-23T02:34:06;8.30;;;5.90;;
9174;SDS011;54374;50.196;8.050;2022-07-23T02:36:37;7.70;;;5.30;;
9174;SDS011;54374;50.196;8.050;2022-07-23T02:39:05;10.57;;;6.60;;
9174;SDS011;54374;50.196;8.050;2022-07-23T02:41:33;9.63;;;5.77;;
9174;SDS011;54374;50.196;8.050;2022-07-23T02:44:01;10.03;;;5.83;;
9174;SDS011;54374;50.196;8.050;2022-07-23T02:46:28;12.50;;;6.40;;
9174;SDS011;54374;50.196;8.050;2022-07-23T02:48:58;11.37;;;6.80;;
9174;SDS011;54374;50.196;8.050;2022-07-23T02:51:25;8.07;;;5.87;;
9174;SDS011;54374;50.196;8.050;2022-07-23T02:53:56;9.70;;;6.20;;
9174;SDS011;54374;50.196;8.050;2022-07-23T02:56:24;8.83;;;5.70;;
9174;SDS011;54374;50.196;8.050;2022-07-23T02:58:51;8.47;;;5.80;;
9174;SDS011;54374;50.196;8.050;2022-07-23T03:01:20;8.60;;;6.30;;
9174;SDS011;54374;50.196;8.050;2022-07-23T03:03:47;11.40;;;5.90;;
9174;SDS011;54374;50.196;8.050;2022-07-23T03:06:16;11.87;;;6.83;;
9174;SDS011;54374;50.196;8.050;2022-07-23T03:08:43;10.70;;;6.57;;
9174;SDS011;54374;50.196;8.050;2022-07-23T03:11:10;9.63;;;5.93;;
9174;SDS011;54374;50.196;8.050;2022-07-23T03:13:40;12.33;;;6.20;;
9174;SDS011;54374;50.196;8.050;2022-07-23T03:16:07;10.13;;;5.73;;
9174;SDS011;54374;50.196;8.050;2022-07-23T03:18:36;8.90;;;5.70;;
9174;SDS011;54374;50.196;8.050;2022-07-23T03:21:03;9.10;;;6.30;;
9174;SDS011;54374;50.196;8.050;2022-07-23T03:23:32;10.40;;;6.70;;
9174;SDS011;54374;50.196;8.050;2022-07-23T03:25:59;13.57;;;7.37;;
9174;SDS011;54374;50.196;8.050;2022-07-23T03:28:28;11.37;;;7.20;;
9174;SDS011;54374;50.196;8.050;2022-07-23T03:30:58;16.27;;;7.90;;
9174;SDS011;54374;50.196;8.050;2022-07-23T03:33:25;12.57;;;8.00;;
9174;SDS011;54374;50.196;8.050;2022-07-23T03:35:53;11.90;;;6.87;;
9174;SDS011;54374;50.196;8.050;2022-07-23T03:38:24;12.83;;;7.23;;
9174;SDS011;54374;50.196;8.050;2022-07-23T03:40:54;11.97;;;7.23;;
9174;SDS011;54374;50.196;8.050;2022-07-23T03:43:21;8.90;;;6.23;;
9174;SDS011;54374;50.196;8.050;2022-07-23T03:45:49;8.00;;;6.13;;
9174;SDS011;54374;50.196;8.050;2022-07-23T03:48:16;11.30;;;6.80;;
9174;SDS011;54374;50.196;8.050;2022-07-23T03:50:44;10.20;;;7.07;;
9174;SDS011;54374;50.196;8.050;2022-07-23T03:53:11;12.80;;;7.77;;
9174;SDS011;54374;50.196;8.050;2022-07-23T03:55:39;10.97;;;6.57;;
9174;SDS011;54374;50.196;8.050;2022-07-23T03:58:07;11.87;;;7.27;;
9174;SDS011;54374;50.196;8.050;2022-07-23T04:00:34;13.93;;;8.23;;
9174;SDS011;54374;50.196;8.050;2022-07-23T04:03:02;14.10;;;8.43;;
9174;SDS011;54374;50.196;8.050;2022-07-23T04:05:29;16.20;;;8.83;;
9174;SDS011;54374;50.196;8.050;2022-07-23T04:08:07;11.63;;;7.37;;
9174;SDS011;54374;50.196;8.050;2022-07-23T04:10:38;12.17;;;6.50;;
9174;SDS011;54374;50.196;8.050;2022-07-23T04:13:08;11.83;;;7.17;;
9174;SDS011;54374;50.196;8.050;2022-07-23T04:15:35;15.43;;;6.50;;
9174;SDS011;54374;50.196;8.050;2022-07-23T04:18:04;14.20;;;8.50;;
9174;SDS011;54374;50.196;8.050;2022-07-23T04:20:41;13.70;;;7.30;;
9174;SDS011;54374;50.196;8.050;2022-07-23T04:23:09;9.97;;;6.10;;
9174;SDS011;54374;50.196;8.050;2022-07-23T04:25:36;9.97;;;5.90;;
9174;SDS011;54374;50.196;8.050;2022-07-23T04:28:05;10.67;;;5.73;;
9174;SDS011;54374;50.196;8.050;2022-07-23T04:30:33;15.50;;;7.03;;
9174;SDS011;54374;50.196;8.050;2022-07-23T04:33:00;10.17;;;6.87;;
9174;SDS011;54374;50.196;8.050;2022-07-23T04:35:31;11.07;;;6.97;;
9174;SDS011;54374;50.196;8.050;2022-07-23T04:38:08;11.77;;;6.90;;
9174;SDS011;54374;50.196;8.050;2022-07-23T04:40:35;11.77;;;7.23;;
9174;SDS011;54374;50.196;8.050;2022-07-23T04:43:03;12.50;;;8.13;;
9174;SDS011;54374;50.196;8.050;2022-07-23T04:45:34;10.40;;;6.70;;
9174;SDS011;54374;50.196;8.050;2022-07-23T04:48:01;12.37;;;6.97;;
9174;SDS011;54374;50.196;8.050;2022-07-23T04:50:29;10.53;;;6.23;;
9174;SDS011;54374;50.196;8.050;2022-07-23T04:52:57;16.43;;;7.67;;
9174;SDS011;54374;50.196;8.050;2022-07-23T04:55:24;8.50;;;6.10;;
9174;SDS011;54374;50.196;8.050;2022-07-23T04:57:54;11.03;;;7.20;;
9174;SDS011;54374;50.196;8.050;2022-07-23T05:00:22;11.13;;;7.00;;
9174;SDS011;54374;50.196;8.050;2022-07-23T05:02:50;9.30;;;6.50;;
9174;SDS011;54374;50.196;8.050;2022-07-23T05:05:17;13.03;;;6.73;;
9174;SDS011;54374;50.196;8.050;2022-07-23T05:07:44;12.20;;;7.20;;
9174;SDS011;54374;50.196;8.050;2022-07-23T05:10:11;9.87;;;6.53;;
9174;SDS011;54374;50.196;8.050;2022-07-23T05:12:39;12.97;;;7.30;;
9174;SDS011;54374;50.196;8.050;2022-07-23T05:15:06;12.70;;;7.90;;
9174;SDS011;54374;50.196;8.050;2022-07-23T05:17:34;14.70;;;8.00;;
9174;SDS011;54374;50.196;8.050;2022-07-23T05:20:07;11.60;;;7.47;;
9174;SDS011;54374;50.196;8.050;2022-07-23T05:22:35;10.40;;;7.37;;
9174;SDS011;54374;50.196;8.050;2022-07-23T05:25:02;10.70;;;7.10;;
9174;SDS011;54374;50.196;8.050;2022-07-23T05:27:30;12.90;;;7.93;;
9174;SDS011;54374;50.196;8.050;2022-07-23T05:29:57;13.13;;;8.50;;
9174;SDS011;54374;50.196;8.050;2022-07-23T05:32:24;16.33;;;7.40;;
9174;SDS011;54374;50.196;8.050;2022-07-23T05:35:07;11.53;;;7.47;;
9174;SDS011;54374;50.196;8.050;2022-07-23T05:37:38;13.03;;;8.13;;
9174;SDS011;54374;50.196;8.050;2022-07-23T05:40:06;11.77;;;7.53;;
9174;SDS011;54374;50.196;8.050;2022-07-23T05:42:36;14.77;;;7.77;;
9174;SDS011;54374;50.196;8.050;2022-07-23T05:45:05;9.60;;;6.13;;
9174;SDS011;54374;50.196;8.050;2022-07-23T05:47:40;10.20;;;7.07;;
9174;SDS011;54374;50.196;8.050;2022-07-23T05:50:11;11.43;;;6.50;;
9174;SDS011;54374;50.196;8.050;2022-07-23T05:52:43;10.50;;;6.73;;
9174;SDS011;54374;50.196;8.050;2022-07-23T05:55:40;12.77;;;6.97;;
9174;SDS011;54374;50.196;8.050;2022-07-23T05:58:07;11.50;;;7.10;;
9174;SDS011;54374;50.196;8.050;2022-07-23T06:00:34;11.10;;;7.40;;
9174;SDS011;54374;50.196;8.050;2022-07-23T06:03:04;12.57;;;8.23;;
9174;SDS011;54374;50.196;8.050;2022-07-23T06:05:33;12.33;;;7.03;;
9174;SDS011;54374;50.196;8.050;2022-07-23T06:08:00;12.27;;;6.53;;
9174;SDS011;54374;50.196;8.050;2022-07-23T06:10:28;13.07;;;7.37;;
9174;SDS011;54374;50.196;8.050;2022-07-23T06:12:55;10.77;;;7.20;;
9174;SDS011;54374;50.196;8.050;2022-07-23T06:15:23;12.30;;;7.53;;
9174;SDS011;54374;50.196;8.050;2022-07-23T06:17:50;14.20;;;7.00;;
9174;SDS011;54374;50.196;8.050;2022-07-23T06:20:18;11.20;;;7.07;;
9174;SDS011;54374;50.196;8.050;2022-07-23T06:22:46;11.97;;;8.47;;
9174;SDS011;54374;50.196;8.050;2022-07-23T06:25:13;14.50;;;7.50;;
9174;SDS011;54374;50.196;8.050;2022-07-23T06:27:43;11.70;;;7.00;;
9174;SDS011;54374;50.196;8.050;2022-07-23T06:30:11;10.23;;;6.63;;
9174;SDS011;54374;50.196;8.050;2022-07-23T06:32:41;12.90;;;7.40;;
9174;SDS011;54374;50.196;8.050;2022-07-23T06:35:08;13.17;;;7.80;;
9174;SDS011;54374;50.196;8.050;2022-07-23T06:37:35;8.97;;;6.20;;
9174;SDS011;54374;50.196;8.050;2022-07-23T06:40:04;11.00;;;6.63;;
9174;SDS011;54374;50.196;8.050;2022-07-23T06:42:35;10.33;;;6.83;;
9174;SDS011;54374;50.196;8.050;2022-07-23T06:45:05;12.53;;;6.63;;
9174;SDS011;54374;50.196;8.050;2022-07-23T06:47:35;11.60;;;6.67;;
9174;SDS011;54374;50.196;8.050;2022-07-23T06:50:02;11.10;;;6.87;;
9174;SDS011;54374;50.196;8.050;2022-07-23T06:52:29;9.10;;;6.63;;
9174;SDS011;54374;50.196;8.050;2022-07-23T06:55:00;9.90;;;6.13;;
9174;SDS011;54374;50.196;8.050;2022-07-23T06:57:29;12.03;;;7.10;;
9174;SDS011;54374;50.196;8.050;2022-07-23T06:59:56;13.20;;;7.40;;
9174;SDS011;54374;50.196;8.050;2022-07-23T07:02:24;9.40;;;6.40;;
9174;SDS011;54374;50.196;8.050;2022-07-23T07:04:53;9.63;;;6.20;;
9174;SDS011;54374;50.196;8.050;2022-07-23T07:07:21;10.30;;;6.00;;
9174;SDS011;54374;50.196;8.050;2022-07-23T07:09:48;6.87;;;5.40;;
9174;SDS011;54374;50.196;8.050;2022-07-23T07:12:15;12.27;;;6.30;;
9174;SDS011;54374;50.196;8.050;2022-07-23T07:14:44;9.23;;;5.60;;
9174;SDS011;54374;50.196;8.050;2022-07-23T07:17:14;9.53;;;5.93;;
9174;SDS011;54374;50.196;8.050;2022-07-23T07:19:42;6.60;;;5.10;;
9174;SDS011;54374;50.196;8.050;2022-07-23T07:22:09;7.63;;;5.30;;
9174;SDS011;54374;50.196;8.050;2022-07-23T07:24:36;7.57;;;5.47;;
9174;SDS011;54374;50.196;8.050;2022-07-23T07:27:03;8.47;;;5.20;;
9174;SDS011;54374;50.196;8.050;2022-07-23T07:29:31;7.40;;;5.23;;
9174;SDS011;54374;50.196;8.050;2022-07-23T07:31:59;7.47;;;5.40;;
9174;SDS011;54374;50.196;8.050;2022-07-23T07:34:26;8.93;;;5.80;;
9174;SDS011;54374;50.196;8.050;2022-07-23T07:36:53;10.27;;;6.20;;
9174;SDS011;54374;50.196;8.050;2022-07-23T07:39:20;10.20;;;5.73;;
9174;SDS011;54374;50.196;8.050;2022-07-23T07:41:47;9.03;;;6.00;;
9174;SDS011;54374;50.196;8.050;2022-07-23T07:44:14;7.17;;;5.63;;
9174;SDS011;54374;50.196;8.050;2022-07-23T07:46:41;10.70;;;5.90;;
9174;SDS011;54374;50.196;8.050;2022-07-23T07:49:10;9.37;;;5.87;;
9174;SDS011;54374;50.196;8.050;2022-07-23T07:51:37;9.60;;;5.27;;
9174;SDS011;54374;50.196;8.050;2022-07-23T07:54:13;8.30;;;5.40;;
9174;SDS011;54374;50.196;8.050;2022-07-23T07:56:40;11.60;;;5.20;;
9174;SDS011;54374;50.196;8.050;2022-07-23T07:59:07;6.53;;;5.10;;
9174;SDS011;54374;50.196;8.050;2022-07-23T08:01:34;7.50;;;5.23;;
9174;SDS011;54374;50.196;8.050;2022-07-23T08:04:01;8.43;;;5.00;;
9174;SDS011;54374;50.196;8.050;2022-07-23T08:06:29;6.73;;;4.67;;
9174;SDS011;54374;50.196;8.050;2022-07-23T08:08:56;5.90;;;4.33;;
9174;SDS011;54374;50.196;8.050;2022-07-23T08:11:24;6.50;;;4.40;;
9174;SDS011;54374;50.196;8.050;2022-07-23T08:13:54;5.33;;;4.63;;
9174;SDS011;54374;50.196;8.050;2022-07-23T08:16:22;7.13;;;4.33;;
9174;SDS011;54374;50.196;8.050;2022-07-23T08:18:49;8.13;;;5.40;;
9174;SDS011;54374;50.196;8.050;2022-07-23T08:21:16;9.03;;;5.00;;
9174;SDS011;54374;50.196;8.050;2022-07-23T08:23:44;7.23;;;4.97;;
9174;SDS011;54374;50.196;8.050;2022-07-23T08:26:13;7.37;;;5.27;;
9174;SDS011;54374;50.196;8.050;2022-07-23T08:28:41;6.60;;;4.70;;
9174;SDS011;54374;50.196;8.050;2022-07-23T08:31:08;7.70;;;4.90;;
9174;SDS011;54374;50.196;8.050;2022-07-23T08:33:37;5.90;;;4.93;;
9174;SDS011;54374;50.196;8.050;2022-07-23T08:36:04;5.60;;;4.50;;
9174;SDS011;54374;50.196;8.050;2022-07-23T08:38:32;7.60;;;4.90;;
9174;SDS011;54374;50.196;8.050;2022-07-23T08:41:02;6.90;;;5.00;;
9174;SDS011;54374;50.196;8.050;2022-07-23T08:43:31;6.63;;;5.03;;
9174;SDS011;54374;50.196;8.050;2022-07-23T08:46:01;6.43;;;4.90;;
9174;SDS011;54374;50.196;8.050;2022-07-23T08:48:30;6.40;;;4.50;;
9174;SDS011;54374;50.196;8.050;2022-07-23T08:50:59;7.13;;;4.33;;
9174;SDS011;54374;50.196;8.050;2022-07-23T08:53:28;6.70;;;5.27;;
9174;SDS011;54374;50.196;8.050;2022-07-23T08:56:03;7.60;;;5.00;;
9174;SDS011;54374;50.196;8.050;2022-07-23T08:58:31;6.23;;;4.43;;
9174;SDS011;54374;50.196;8.050;2022-07-23T09:00:58;5.13;;;4.13;;
9174;SDS011;54374;50.196;8.050;2022-07-23T09:03:27;5.17;;;4.17;;
9174;SDS011;54374;50.196;8.050;2022-07-23T09:05:55;6.13;;;4.33;;
9174;SDS011;54374;50.196;8.050;2022-07-23T09:08:24;6.40;;;3.97;;
9174;SDS011;54374;50.196;8.050;2022-07-23T09:10:52;5.37;;;4.27;;
9174;SDS011;54374;50.196;8.050;2022-07-23T09:13:26;5.17;;;3.93;;
9174;SDS011;54374;50.196;8.050;2022-07-23T09:16:03;4.67;;;4.07;;
9174;SDS011;54374;50.196;8.050;2022-07-23T09:18:34;5.60;;;3.70;;
9174;SDS011;54374;50.196;8.050;2022-07-23T09:21:17;4.37;;;3.60;;
9174;SDS011;54374;50.196;8.050;2022-07-23T09:23:50;7.00;;;4.13;;
9174;SDS011;54374;50.196;8.050;2022-07-23T09:26:20;4.90;;;4.20;;
9174;SDS011;54374;50.196;8.050;2022-07-23T09:29:01;6.40;;;4.27;;
9174;SDS011;54374;50.196;8.050;2022-07-23T09:31:32;4.87;;;3.97;;
9174;SDS011;54374;50.196;8.050;2022-07-23T09:34:08;4.73;;;3.67;;
9174;SDS011;54374;50.196;8.050;2022-07-23T09:36:37;4.00;;;3.30;;
9174;SDS011;54374;50.196;8.050;2022-07-23T09:39:05;6.60;;;5.03;;
9174;SDS011;54374;50.196;8.050;2022-07-23T09:41:37;6.00;;;4.17;;
9174;SDS011;54374;50.196;8.050;2022-07-23T09:44:08;5.10;;;4.07;;
9174;SDS011;54374;50.196;8.050;2022-07-23T09:46:37;6.60;;;4.20;;
9174;SDS011;54374;50.196;8.050;2022-07-23T09:49:10;5.03;;;3.87;;
9174;SDS011;54374;50.196;8.050;2022-07-23T09:51:45;7.27;;;3.87;;
9174;SDS011;54374;50.196;8.050;2022-07-23T09:54:27;4.67;;;3.77;;
9174;SDS011;54374;50.196;8.050;2022-07-23T09:57:02;6.30;;;4.57;;
9174;SDS011;54374;50.196;8.050;2022-07-23T09:59:35;6.50;;;4.57;;
9174;SDS011;54374;50.196;8.050;2022-07-23T10:02:05;6.40;;;4.90;;
9174;SDS011;54374;50.196;8.050;2022-07-23T10:04:44;4.90;;;3.87;;
9174;SDS011;54374;50.196;8.050;2022-07-23T10:07:18;6.30;;;4.20;;
9174;SDS011;54374;50.196;8.050;2022-07-23T10:10:21;7.07;;;4.47;;
9174;SDS011;54374;50.196;8.050;2022-07-23T10:13:10;6.87;;;4.57;;
9174;SDS011;54374;50.196;8.050;2022-07-23T10:15:55;5.50;;;4.63;;
9174;SDS011;54374;50.196;8.050;2022-07-23T10:18:26;5.77;;;4.57;;
9174;SDS011;54374;50.196;8.050;2022-07-23T10:20:53;5.93;;;4.60;;
9174;SDS011;54374;50.196;8.050;2022-07-23T10:23:22;6.00;;;4.20;;
9174;SDS011;54374;50.196;8.050;2022-07-23T10:25:58;6.27;;;4.43;;
9174;SDS011;54374;50.196;8.050;2022-07-23T10:28:40;6.03;;;4.90;;
9174;SDS011;54374;50.196;8.050;2022-07-23T10:31:17;8.13;;;5.13;;
9174;SDS011;54374;50.196;8.050;2022-07-23T10:34:07;5.67;;;4.80;;
9174;SDS011;54374;50.196;8.050;2022-07-23T10:36:44;10.80;;;5.90;;
9174;SDS011;54374;50.196;8.050;2022-07-23T10:39:17;8.23;;;4.93;;
9174;SDS011;54374;50.196;8.050;2022-07-23T10:41:48;6.93;;;5.00;;
9174;SDS011;54374;50.196;8.050;2022-07-23T10:44:17;6.93;;;4.83;;
9174;SDS011;54374;50.196;8.050;2022-07-23T10:46:55;6.30;;;4.97;;
9174;SDS011;54374;50.196;8.050;2022-07-23T10:49:41;6.47;;;4.90;;
9174;SDS011;54374;50.196;8.050;2022-07-23T10:52:24;5.80;;;5.20;;
9174;SDS011;54374;50.196;8.050;2022-07-23T10:54:53;6.33;;;5.07;;
9174;SDS011;54374;50.196;8.050;2022-07-23T10:57:23;7.00;;;5.23;;
9174;SDS011;54374;50.196;8.050;2022-07-23T11:02:49;6.63;;;4.87;;
9174;SDS011;54374;50.196;8.050;2022-07-23T11:05:18;6.07;;;4.90;;
9174;SDS011;54374;50.196;8.050;2022-07-23T11:10:37;8.23;;;5.47;;
9174;SDS011;54374;50.196;8.050;2022-07-23T11:13:26;7.90;;;5.80;;
9174;SDS011;54374;50.196;8.050;2022-07-23T11:16:08;12.70;;;5.70;;
9174;SDS011;54374;50.196;8.050;2022-07-23T11:18:55;7.93;;;6.10;;
9174;SDS011;54374;50.196;8.050;2022-07-23T11:21:45;5.50;;;4.90;;
9174;SDS011;54374;50.196;8.050;2022-07-23T11:24:14;7.03;;;5.40;;
9174;SDS011;54374;50.196;8.050;2022-07-23T11:27:01;8.13;;;5.03;;
9174;SDS011;54374;50.196;8.050;2022-07-23T11:29:42;6.43;;;4.97;;
9174;SDS011;54374;50.196;8.050;2022-07-23T11:32:23;7.17;;;6.10;;
9174;SDS011;54374;50.196;8.050;2022-07-23T11:34:57;8.27;;;5.80;;
9174;SDS011;54374;50.196;8.050;2022-07-23T11:40:11;6.57;;;5.10;;
9174;SDS011;54374;50.196;8.050;2022-07-23T11:42:40;6.87;;;5.43;;
9174;SDS011;54374;50.196;8.050;2022-07-23T11:45:18;6.97;;;5.43;;
9174;SDS011;54374;50.196;8.050;2022-07-23T11:47:45;9.43;;;5.83;;
9174;SDS011;54374;50.196;8.050;2022-07-23T11:50:14;10.53;;;6.60;;
9174;SDS011;54374;50.196;8.050;2022-07-23T11:52:41;6.50;;;5.10;;
9174;SDS011;54374;50.196;8.050;2022-07-23T11:55:09;7.37;;;5.67;;
9174;SDS011;54374;50.196;8.050;2022-07-23T11:57:40;8.30;;;5.47;;
9174;SDS011;54374;50.196;8.050;2022-07-23T12:00:08;10.43;;;5.23;;
9174;SDS011;54374;50.196;8.050;2022-07-23T12:02:39;8.70;;;6.07;;
9174;SDS011;54374;50.196;8.050;2022-07-23T12:05:08;7.93;;;6.13;;
9174;SDS011;54374;50.196;8.050;2022-07-23T12:07:40;8.20;;;6.00;;
9174;SDS011;54374;50.196;8.050;2022-07-23T12:10:11;5.60;;;4.90;;
9174;SDS011;54374;50.196;8.050;2022-07-23T12:12:40;8.07;;;5.60;;
9174;SDS011;54374;50.196;8.050;2022-07-23T12:15:10;7.90;;;5.50;;
9174;SDS011;54374;50.196;8.050;2022-07-23T12:17:39;7.50;;;5.50;;
9174;SDS011;54374;50.196;8.050;2022-07-23T12:20:09;7.27;;;5.60;;
9174;SDS011;54374;50.196;8.050;2022-07-23T12:22:44;7.10;;;5.03;;
9174;SDS011;54374;50.196;8.050;2022-07-23T12:25:13;8.07;;;6.17;;
9174;SDS011;54374;50.196;8.050;2022-07-23T12:27:41;6.43;;;5.23;;
9174;SDS011;54374;50.196;8.050;2022-07-23T12:30:16;6.37;;;5.13;;
9174;SDS011;54374;50.196;8.050;2022-07-23T12:32:44;6.53;;;5.83;;
9174;SDS011;54374;50.196;8.050;2022-07-23T12:35:12;8.00;;;5.87;;
9174;SDS011;54374;50.196;8.050;2022-07-23T12:37:40;8.13;;;5.33;;
9174;SDS011;54374;50.196;8.050;2022-07-23T12:40:19;9.00;;;5.90;;
9174;SDS011;54374;50.196;8.050;2022-07-23T12:42:52;5.43;;;4.77;;
9174;SDS011;54374;50.196;8.050;2022-07-23T12:45:23;8.07;;;5.20;;
9174;SDS011;54374;50.196;8.050;2022-07-23T12:47:53;9.00;;;5.50;;
9174;SDS011;54374;50.196;8.050;2022-07-23T12:50:37;8.33;;;5.10;;
9174;SDS011;54374;50.196;8.050;2022-07-23T12:53:10;8.00;;;5.53;;
9174;SDS011;54374;50.196;8.050;2022-07-23T12:55:42;8.20;;;5.93;;
9174;SDS011;54374;50.196;8.050;2022-07-23T12:58:11;7.60;;;5.50;;
9174;SDS011;54374;50.196;8.050;2022-07-23T13:00:51;7.87;;;5.60;;
9174;SDS011;54374;50.196;8.050;2022-07-23T13:03:24;7.53;;;5.53;;
9174;SDS011;54374;50.196;8.050;2022-07-23T13:05:52;7.40;;;5.50;;
9174;SDS011;54374;50.196;8.050;2022-07-23T13:08:20;6.27;;;5.33;;
9174;SDS011;54374;50.196;8.050;2022-07-23T13:10:49;5.70;;;5.10;;
9174;SDS011;54374;50.196;8.050;2022-07-23T13:13:20;7.53;;;4.90;;
9174;SDS011;54374;50.196;8.050;2022-07-23T13:15:48;7.20;;;5.40;;
9174;SDS011;54374;50.196;8.050;2022-07-23T13:18:15;8.70;;;4.80;;
9174;SDS011;54374;50.196;8.050;2022-07-23T13:20:43;6.27;;;5.03;;
9174;SDS011;54374;50.196;8.050;2022-07-23T13:23:11;5.70;;;4.30;;
9174;SDS011;54374;50.196;8.050;2022-07-23T13:25:39;5.43;;;4.27;;
9174;SDS011;54374;50.196;8.050;2022-07-23T13:28:07;7.80;;;4.20;;
9174;SDS011;54374;50.196;8.050;2022-07-23T13:30:35;6.63;;;5.03;;
9174;SDS011;54374;50.196;8.050;2022-07-23T13:33:03;4.97;;;4.40;;
9174;SDS011;54374;50.196;8.050;2022-07-23T13:35:33;6.30;;;4.43;;
9174;SDS011;54374;50.196;8.050;2022-07-23T13:38:00;4.90;;;3.97;;
9174;SDS011;54374;50.196;8.050;2022-07-23T13:40:27;6.37;;;4.40;;
9174;SDS011;54374;50.196;8.050;2022-07-23T13:42:55;6.33;;;5.43;;
9174;SDS011;54374;50.196;8.050;2022-07-23T13:45:23;6.70;;;4.10;;
9174;SDS011;54374;50.196;8.050;2022-07-23T13:47:50;5.60;;;4.60;;
9174;SDS011;54374;50.196;8.050;2022-07-23T13:50:17;4.80;;;4.17;;
9174;SDS011;54374;50.196;8.050;2022-07-23T13:52:44;5.30;;;4.10;;
9174;SDS011;54374;50.196;8.050;2022-07-23T13:55:11;6.20;;;4.13;;
9174;SDS011;54374;50.196;8.050;2022-07-23T13:57:39;5.23;;;4.03;;
9174;SDS011;54374;50.196;8.050;2022-07-23T14:00:07;7.73;;;4.60;;
9174;SDS011;54374;50.196;8.050;2022-07-23T14:02:39;5.47;;;4.10;;
9174;SDS011;54374;50.196;8.050;2022-07-23T14:05:09;6.10;;;4.17;;
9174;SDS011;54374;50.196;8.050;2022-07-23T14:07:37;4.73;;;4.20;;
9174;SDS011;54374;50.196;8.050;2022-07-23T14:10:06;4.00;;;3.60;;
9174;SDS011;54374;50.196;8.050;2022-07-23T14:12:34;4.70;;;3.43;;
9174;SDS011;54374;50.196;8.050;2022-07-23T14:15:02;5.20;;;4.20;;
9174;SDS011;54374;50.196;8.050;2022-07-23T14:17:30;6.43;;;3.83;;
9174;SDS011;54374;50.196;8.050;2022-07-23T14:19:59;5.30;;;3.40;;
9174;SDS011;54374;50.196;8.050;2022-07-23T14:22:26;5.97;;;4.60;;
9174;SDS011;54374;50.196;8.050;2022-07-23T14:24:54;4.30;;;3.47;;
9174;SDS011;54374;50.196;8.050;2022-07-23T14:27:23;6.33;;;3.53;;
9174;SDS011;54374;50.196;8.050;2022-07-23T14:29:51;5.10;;;3.90;;
9174;SDS011;54374;50.196;8.050;2022-07-23T14:32:18;4.23;;;3.37;;
9174;SDS011;54374;50.196;8.050;2022-07-23T14:34:45;4.90;;;3.80;;
9174;SDS011;54374;50.196;8.050;2022-07-23T14:37:14;7.10;;;3.70;;
9174;SDS011;54374;50.196;8.050;2022-07-23T14:39:42;4.93;;;3.70;;
9174;SDS011;54374;50.196;8.050;2022-07-23T14:42:09;4.30;;;3.30;;
9174;SDS011;54374;50.196;8.050;2022-07-23T14:44:37;7.30;;;3.97;;
9174;SDS011;54374;50.196;8.050;2022-07-23T14:47:05;5.17;;;3.83;;
9174;SDS011;54374;50.196;8.050;2022-07-23T14:49:32;5.00;;;3.90;;
9174;SDS011;54374;50.196;8.050;2022-07-23T14:51:59;5.50;;;4.03;;
9174;SDS011;54374;50.196;8.050;2022-07-23T14:54:28;4.13;;;3.60;;
9174;SDS011;54374;50.196;8.050;2022-07-23T14:56:56;4.20;;;3.70;;
9174;SDS011;54374;50.196;8.050;2022-07-23T14:59:24;5.43;;;3.70;;
9174;SDS011;54374;50.196;8.050;2022-07-23T15:01:51;5.03;;;4.00;;
9174;SDS011;54374;50.196;8.050;2022-07-23T15:04:19;5.60;;;3.90;;
9174;SDS011;54374;50.196;8.050;2022-07-23T15:06:47;5.53;;;3.90;;
9174;SDS011;54374;50.196;8.050;2022-07-23T15:09:14;4.50;;;3.50;;
9174;SDS011;54374;50.196;8.050;2022-07-23T15:11:43;5.67;;;4.00;;
9174;SDS011;54374;50.196;8.050;2022-07-23T15:14:10;4.10;;;3.47;;
9174;SDS011;54374;50.196;8.050;2022-07-23T15:16:37;6.07;;;4.00;;
9174;SDS011;54374;50.196;8.050;2022-07-23T15:19:04;4.50;;;3.70;;
9174;SDS011;54374;50.196;8.050;2022-07-23T15:21:31;4.10;;;3.70;;